Time;durP1;ratioP1;P1;durP2;ratioP2;P2;SDS_P1;SDS_P2;PMS_P1;PMS_P2;Temp;Humidity;BMP_temperature;BMP_pressure;BME280_temperature;BME280_humidity;BME280_pressure;Samples;Min_cycle;Max_cycle;Signal;HPM_P1;HPM_P2
2023/06/03 00:01:11;;;;;;;23.60;22.47;;;20.90;54.90;;;;;;5074149;28;20495;-62
2023/06/03 00:03:44;;;;;;;24.43;23.40;;;20.90;55.00;;;;;;5074395;28;20504;-63
2023/06/03 00:06:12;;;;;;;25.07;23.87;;;20.90;55.00;;;;;;5074425;28;20450;-62
2023/06/03 00:08:39;;;;;;;24.60;23.50;;;20.90;55.00;;;;;;5073913;28;20479;-62
2023/06/03 00:11:06;;;;;;;26.27;25.07;;;20.90;55.20;;;;;;5074011;28;20498;-63
2023/06/03 00:13:33;;;;;;;25.97;24.77;;;20.90;55.30;;;;;;5074289;28;20531;-63
2023/06/03 00:16:00;;;;;;;25.60;24.37;;;20.90;55.30;;;;;;5074041;28;20916;-62
2023/06/03 00:18:27;;;;;;;25.00;23.87;;;20.80;55.30;;;;;;5073761;28;20471;-61
2023/06/03 00:20:56;;;;;;;25.53;24.23;;;20.90;55.30;;;;;;5073900;28;20470;-60
2023/06/03 00:23:23;;;;;;;27.03;25.80;;;20.90;55.40;;;;;;5074007;28;20478;-62
2023/06/03 00:25:50;;;;;;;26.30;25.20;;;20.80;55.40;;;;;;5074014;28;20478;-62
2023/06/03 00:28:17;;;;;;;25.70;24.30;;;20.90;55.60;;;;;;5073246;28;20517;-60
2023/06/03 00:30:43;;;;;;;25.20;24.20;;;20.80;55.40;;;;;;5073268;28;20504;-59
2023/06/03 00:33:10;;;;;;;23.30;22.00;;;20.90;55.60;;;;;;5073780;28;20475;-62
2023/06/03 00:35:37;;;;;;;22.00;20.93;;;20.80;55.50;;;;;;5073933;28;20526;-61
2023/06/03 00:38:06;;;;;;;21.77;20.70;;;20.90;55.70;;;;;;5073337;28;20471;-59
2023/06/03 00:40:32;;;;;;;22.17;21.10;;;20.80;55.70;;;;;;5072266;28;20514;-62
2023/06/03 00:42:59;;;;;;;21.97;20.97;;;20.80;55.70;;;;;;5073628;28;20526;-63
2023/06/03 00:45:26;;;;;;;22.23;21.20;;;20.90;55.60;;;;;;5073562;28;20443;-63
2023/06/03 00:47:53;;;;;;;22.63;21.40;;;20.80;55.70;;;;;;5073208;28;20513;-62
2023/06/03 00:50:21;;;;;;;23.97;22.63;;;20.80;55.70;;;;;;5073192;28;20521;-62
2023/06/03 00:52:50;;;;;;;24.00;22.80;;;20.80;55.80;;;;;;5073485;28;20486;-60
2023/06/03 00:55:18;;;;;;;21.60;20.67;;;20.80;55.80;;;;;;5073437;28;20447;-62
2023/06/03 00:57:46;;;;;;;21.57;20.67;;;20.80;55.80;;;;;;5054273;28;21002;-62
2023/06/03 01:00:13;;;;;;;22.23;21.10;;;20.80;55.80;;;;;;5053300;28;20913;-62
2023/06/03 01:02:43;;;;;;;22.10;21.10;;;20.70;55.80;;;;;;5053288;28;20483;-62
2023/06/03 01:05:11;;;;;;;22.30;21.30;;;20.70;55.90;;;;;;5053366;28;20449;-63
2023/06/03 01:07:50;;;;;;;22.10;20.90;;;20.70;56.00;;;;;;5053047;28;20567;-63
2023/06/03 01:10:23;;;;;;;22.80;21.70;;;20.70;56.10;;;;;;5052965;28;20662;-62
2023/06/03 01:12:58;;;;;;;22.07;20.97;;;20.80;56.20;;;;;;5052991;28;20479;-62
2023/06/03 01:15:28;;;;;;;21.00;20.10;;;20.70;56.10;;;;;;5052982;28;20494;-62
2023/06/03 01:17:58;;;;;;;20.30;19.53;;;20.80;56.10;;;;;;5072001;28;20475;-62
2023/06/03 01:20:28;;;;;;;21.10;20.30;;;20.70;56.20;;;;;;5072733;28;20882;-62
2023/06/03 01:23:00;;;;;;;21.30;20.50;;;20.70;56.30;;;;;;5072889;28;20479;-62
2023/06/03 01:25:28;;;;;;;21.57;20.67;;;20.70;56.40;;;;;;5072912;28;20443;-61
2023/06/03 01:27:57;;;;;;;22.00;21.00;;;20.70;56.40;;;;;;5053207;28;20815;-61
2023/06/03 01:30:24;;;;;;;22.57;21.57;;;20.70;56.30;;;;;;5052480;28;20464;-62
2023/06/03 01:32:53;;;;;;;20.57;19.77;;;20.70;56.30;;;;;;5052615;28;20531;-61
2023/06/03 01:35:20;;;;;;;21.77;20.47;;;20.70;56.40;;;;;;5052705;28;20583;-61
2023/06/03 01:37:48;;;;;;;21.43;20.47;;;20.60;56.40;;;;;;5057768;28;20473;-62
2023/06/03 01:40:15;;;;;;;21.47;20.47;;;20.70;56.40;;;;;;5056934;28;20534;-60
2023/06/03 01:42:44;;;;;;;21.43;20.43;;;20.60;56.40;;;;;;5052316;28;20931;-62
2023/06/03 01:45:12;;;;;;;22.30;21.40;;;20.70;56.50;;;;;;5052385;28;20476;-62
2023/06/03 01:47:39;;;;;;;21.67;20.77;;;20.70;56.40;;;;;;5068411;28;20533;-62
2023/06/03 01:50:07;;;;;;;22.40;21.30;;;20.60;56.30;;;;;;5072175;28;21090;-61
2023/06/03 01:52:34;;;;;;;21.87;20.87;;;20.60;56.40;;;;;;5071927;28;20490;-61
2023/06/03 01:55:00;;;;;;;21.47;20.63;;;20.70;56.60;;;;;;5072242;28;20479;-61
2023/06/03 01:57:28;;;;;;;21.90;20.63;;;20.60;56.60;;;;;;5058001;28;20809;-60
2023/06/03 01:59:56;;;;;;;23.07;21.77;;;20.60;56.50;;;;;;5052097;28;20583;-59
2023/06/03 02:02:23;;;;;;;21.00;20.20;;;20.60;56.40;;;;;;5051934;28;20444;-60
2023/06/03 02:04:55;;;;;;;22.30;21.20;;;20.70;56.50;;;;;;5051998;28;20934;-60
2023/06/03 02:07:25;;;;;;;22.10;21.10;;;20.70;56.50;;;;;;5064924;28;20475;-61
2023/06/03 02:09:53;;;;;;;22.20;21.30;;;20.60;56.40;;;;;;5071608;28;20541;-60
2023/06/03 02:12:20;;;;;;;22.93;21.87;;;20.60;57.00;;;;;;5071726;28;20450;-60
2023/06/03 02:14:47;;;;;;;23.80;22.60;;;20.60;56.60;;;;;;5071819;28;20486;-61
2023/06/03 02:17:15;;;;;;;21.83;20.80;;;20.60;56.70;;;;;;5059271;28;20523;-60
2023/06/03 02:19:42;;;;;;;21.30;20.43;;;20.60;56.60;;;;;;5051849;28;20971;-61
2023/06/03 02:22:10;;;;;;;21.00;20.10;;;20.60;56.60;;;;;;5051542;28;20492;-58
2023/06/03 02:24:38;;;;;;;22.30;21.30;;;20.60;56.60;;;;;;5051735;28;20448;-57
2023/06/03 02:27:06;;;;;;;23.53;22.43;;;20.60;56.60;;;;;;5062166;28;20516;-62
2023/06/03 02:29:33;;;;;;;22.43;21.43;;;20.60;56.50;;;;;;5071580;28;21030;-61
2023/06/03 02:32:01;;;;;;;22.40;21.40;;;20.50;56.40;;;;;;5071560;28;20876;-60
2023/06/03 02:34:29;;;;;;;22.47;21.47;;;20.50;56.50;;;;;;5071638;28;20874;-61
2023/06/03 02:36:56;;;;;;;21.57;20.67;;;20.50;56.50;;;;;;5063099;28;20483;-61
2023/06/03 02:41:49;;;;;;;22.00;21.10;;;20.50;56.50;;;;;;5092884;22;20594;-57
2023/06/03 02:44:16;;;;;;;23.50;22.30;;;20.50;56.40;;;;;;5071380;28;20518;-55
2023/06/03 02:46:44;;;;;;;22.00;21.10;;;20.40;56.20;;;;;;5064421;28;20439;-59
2023/06/03 02:49:11;;;;;;;23.60;22.30;;;20.50;56.20;;;;;;5051395;28;20487;-53
2023/06/03 02:51:40;;;;;;;22.80;21.60;;;20.40;56.10;;;;;;5032772;28;20552;-57
2023/06/03 02:54:07;;;;;;;22.70;21.60;;;20.40;56.20;;;;;;5031460;28;20507;-54
2023/06/03 02:56:34;;;;;;;23.10;22.10;;;20.40;56.20;;;;;;5031189;28;20473;-53
2023/06/03 02:59:01;;;;;;;22.20;21.20;;;20.50;56.20;;;;;;5031392;28;20496;-53
2023/06/03 03:01:28;;;;;;;23.70;22.30;;;20.50;56.20;;;;;;5031089;28;20496;-56
2023/06/03 03:03:55;;;;;;;22.00;21.10;;;20.40;56.10;;;;;;5032451;28;20518;-53
2023/06/03 03:06:24;;;;;;;22.07;21.17;;;20.40;56.00;;;;;;5035214;28;20503;-54
2023/06/03 03:08:53;;;;;;;21.83;20.73;;;20.40;56.00;;;;;;5035504;28;20484;-53
2023/06/03 03:11:20;;;;;;;22.20;21.20;;;20.40;56.00;;;;;;5035118;28;20499;-53
2023/06/03 03:13:48;;;;;;;22.53;21.53;;;20.40;56.00;;;;;;5035251;28;20944;-55
2023/06/03 03:16:17;;;;;;;21.80;20.90;;;20.40;55.90;;;;;;5035038;28;20488;-54
2023/06/03 03:18:44;;;;;;;22.07;20.87;;;20.40;55.80;;;;;;5035230;28;20453;-53
2023/06/03 03:21:11;;;;;;;22.47;21.57;;;20.40;55.90;;;;;;5034880;28;20519;-51
2023/06/03 03:23:37;;;;;;;21.53;20.63;;;20.40;55.90;;;;;;5035104;28;20580;-53
2023/06/03 03:26:08;;;;;;;22.10;21.10;;;20.40;55.80;;;;;;5034997;28;20874;-52
2023/06/03 03:28:36;;;;;;;22.70;21.70;;;20.40;55.70;;;;;;5035000;28;20487;-51
2023/06/03 03:31:04;;;;;;;22.70;21.60;;;20.40;55.70;;;;;;5034611;28;20972;-51
2023/06/03 03:33:31;;;;;;;21.70;20.60;;;20.40;55.60;;;;;;5034778;28;20448;-57
2023/06/03 03:36:08;;;;;;;22.50;21.60;;;20.40;55.40;;;;;;5035039;28;20544;-52
2023/06/03 03:38:36;;;;;;;22.50;21.50;;;20.40;55.30;;;;;;5034953;28;20571;-55
2023/06/03 03:41:06;;;;;;;21.20;20.30;;;20.50;55.20;;;;;;5034476;28;20476;-54
2023/06/03 03:43:33;;;;;;;21.90;21.00;;;20.40;55.10;;;;;;5033990;28;20444;-57
2023/06/03 03:46:00;;;;;;;22.30;21.40;;;20.40;55.10;;;;;;5034554;28;20487;-55
2023/06/03 03:48:29;;;;;;;22.60;21.53;;;20.50;55.10;;;;;;5034508;28;21046;-56
2023/06/03 03:50:57;;;;;;;22.33;21.30;;;20.50;55.00;;;;;;5034493;28;20590;-54
2023/06/03 03:53:29;;;;;;;22.87;21.77;;;20.40;54.90;;;;;;5034363;28;20476;-56
2023/06/03 03:55:57;;;;;;;23.27;22.20;;;20.40;54.70;;;;;;5034745;28;20440;-53
2023/06/03 03:58:40;;;;;;;23.23;21.80;;;20.40;54.50;;;;;;5034636;28;20822;-56
2023/06/03 04:01:12;;;;;;;23.00;22.07;;;20.40;54.40;;;;;;5034330;28;21073;-55
2023/06/03 04:03:40;;;;;;;23.20;22.20;;;20.50;54.40;;;;;;5034209;28;20453;-55
2023/06/03 04:06:08;;;;;;;23.43;22.43;;;20.50;54.30;;;;;;5034228;28;20449;-56
2023/06/03 04:08:43;;;;;;;23.03;21.90;;;20.50;54.30;;;;;;5034295;28;20487;-52
2023/06/03 04:11:16;;;;;;;22.63;21.67;;;20.40;54.70;;;;;;5034109;28;20885;-59
2023/06/03 04:13:44;;;;;;;22.60;21.60;;;20.50;54.30;;;;;;5034052;28;20495;-58
2023/06/03 04:16:13;;;;;;;23.17;22.27;;;20.50;54.30;;;;;;5034153;28;20480;-59
2023/06/03 04:18:42;;;;;;;24.67;23.50;;;20.50;54.20;;;;;;5034340;28;20865;-55
2023/06/03 04:21:14;;;;;;;23.37;22.37;;;20.40;54.00;;;;;;5033949;28;20471;-61
2023/06/03 04:23:42;;;;;;;22.77;21.77;;;20.50;54.10;;;;;;5033892;28;20536;-57
2023/06/03 04:26:09;;;;;;;24.30;23.23;;;20.50;53.90;;;;;;5034104;28;20445;-54
2023/06/03 04:28:38;;;;;;;23.67;22.47;;;20.60;53.90;;;;;;5033980;28;20496;-59
2023/06/03 04:31:07;;;;;;;23.90;22.80;;;20.60;53.80;;;;;;5033388;28;20496;-60
2023/06/03 04:33:34;;;;;;;23.27;21.90;;;20.60;53.80;;;;;;5033712;28;20485;-55
2023/06/03 04:36:01;;;;;;;22.43;21.53;;;20.60;53.70;;;;;;5033883;28;20445;-58
2023/06/03 04:38:28;;;;;;;23.00;22.00;;;20.70;53.80;;;;;;5033847;28;20460;-55
2023/06/03 04:40:55;;;;;;;22.70;21.80;;;20.70;53.70;;;;;;5033350;28;20516;-55
2023/06/03 04:43:24;;;;;;;23.43;22.33;;;20.70;53.60;;;;;;5033438;28;20453;-59
2023/06/03 04:45:51;;;;;;;24.30;23.10;;;20.70;53.50;;;;;;5033566;28;20445;-56
2023/06/03 04:48:22;;;;;;;23.97;23.03;;;20.70;53.50;;;;;;5033628;28;20485;-54
2023/06/03 04:50:50;;;;;;;22.83;21.93;;;20.80;53.50;;;;;;5033407;28;20476;-56
2023/06/03 04:53:18;;;;;;;24.27;23.07;;;20.80;53.50;;;;;;5033257;28;20480;-56
2023/06/03 04:55:45;;;;;;;22.70;21.80;;;20.80;53.40;;;;;;5033421;28;20528;-57
2023/06/03 04:58:12;;;;;;;23.60;22.70;;;20.80;53.40;;;;;;5033435;28;20452;-57
2023/06/03 05:00:40;;;;;;;23.73;22.83;;;20.80;53.40;;;;;;5033194;28;20991;-57
2023/06/03 05:03:09;;;;;;;24.23;23.23;;;20.80;53.40;;;;;;5033147;28;20515;-52
2023/06/03 05:05:43;;;;;;;24.50;23.23;;;20.90;53.40;;;;;;5033281;28;20449;-53
2023/06/03 05:08:10;;;;;;;23.77;22.80;;;20.80;53.30;;;;;;5033168;28;20449;-52
2023/06/03 05:10:37;;;;;;;24.73;23.53;;;20.80;53.30;;;;;;5032742;28;20469;-56
2023/06/03 05:13:05;;;;;;;25.27;24.27;;;20.90;53.30;;;;;;5032991;28;20883;-57
2023/06/03 05:15:33;;;;;;;24.00;23.00;;;20.90;53.30;;;;;;5033021;28;20813;-52
2023/06/03 05:18:00;;;;;;;23.73;22.73;;;20.90;53.20;;;;;;5032668;28;20445;-57
2023/06/03 05:20:27;;;;;;;24.40;23.40;;;20.90;53.20;;;;;;5032825;28;20460;-60
2023/06/03 05:22:56;;;;;;;23.30;22.30;;;20.90;53.10;;;;;;5032688;28;20944;-53
2023/06/03 05:25:23;;;;;;;24.07;22.97;;;20.90;53.00;;;;;;5032851;28;20503;-57
2023/06/03 05:27:50;;;;;;;23.90;22.90;;;20.90;52.90;;;;;;5032047;28;20950;-58
2023/06/03 05:30:17;;;;;;;22.97;22.07;;;20.90;52.90;;;;;;5032790;28;20520;-52
2023/06/03 05:32:44;;;;;;;23.37;22.40;;;20.90;52.90;;;;;;5032569;28;20548;-55
2023/06/03 05:35:11;;;;;;;23.80;22.70;;;21.00;53.00;;;;;;5032729;28;20456;-55
2023/06/03 05:37:38;;;;;;;24.17;23.07;;;20.90;52.90;;;;;;5032623;28;20484;-54
2023/06/03 05:40:08;;;;;;;23.27;22.07;;;20.90;52.80;;;;;;5032127;28;20560;-54
2023/06/03 05:42:35;;;;;;;24.23;23.33;;;20.90;52.70;;;;;;5027679;28;20892;-53
2023/06/03 05:45:02;;;;;;;24.00;22.80;;;21.00;52.90;;;;;;5031921;28;20449;-52
2023/06/03 05:47:28;;;;;;;23.00;22.07;;;21.10;53.50;;;;;;5032609;28;20472;-54
2023/06/03 05:49:55;;;;;;;24.17;23.00;;;21.10;53.40;;;;;;5032257;28;20563;-53
2023/06/03 05:52:22;;;;;;;24.33;23.13;;;21.20;53.50;;;;;;5032208;28;20480;-53
2023/06/03 05:54:49;;;;;;;24.33;23.27;;;21.20;53.40;;;;;;5031978;28;20919;-50
2023/06/03 05:57:17;;;;;;;24.00;23.00;;;21.30;53.40;;;;;;5032357;28;20532;-51
2023/06/03 05:59:45;;;;;;;23.87;22.70;;;21.30;53.20;;;;;;5032024;28;20523;-56
2023/06/03 06:02:12;;;;;;;25.73;24.67;;;21.40;53.20;;;;;;5032114;28;20772;-51
2023/06/03 06:04:39;;;;;;;25.20;24.00;;;21.40;52.90;;;;;;5031893;28;20453;-50
2023/06/03 06:07:06;;;;;;;26.37;25.27;;;21.40;52.90;;;;;;5032080;28;20952;-50
2023/06/03 06:09:33;;;;;;;24.77;23.67;;;21.50;52.90;;;;;;5031907;28;20523;-52
2023/06/03 06:12:00;;;;;;;24.93;23.83;;;21.50;52.80;;;;;;5031824;28;20502;-50
2023/06/03 06:14:28;;;;;;;25.97;24.47;;;21.50;52.70;;;;;;5031702;28;21027;-50
2023/06/03 06:16:55;;;;;;;24.00;23.10;;;21.50;52.70;;;;;;5031949;28;20449;-52
2023/06/03 06:19:23;;;;;;;24.57;23.57;;;21.50;52.90;;;;;;5031739;28;20476;-51
2023/06/03 06:21:50;;;;;;;24.93;23.80;;;21.50;53.00;;;;;;5031453;28;21013;-49
2023/06/03 06:24:17;;;;;;;23.40;22.50;;;21.60;52.60;;;;;;5031808;28;20477;-54
2023/06/03 06:26:44;;;;;;;26.10;25.10;;;21.70;52.20;;;;;;5031713;28;20535;-54
2023/06/03 06:29:11;;;;;;;26.47;25.30;;;21.80;51.70;;;;;;5031136;28;20564;-52
2023/06/03 06:31:40;;;;;;;25.57;24.47;;;21.80;51.30;;;;;;5031389;28;20501;-52
2023/06/03 06:34:07;;;;;;;25.13;24.13;;;21.80;51.00;;;;;;5031583;28;20472;-51
2023/06/03 06:36:42;;;;;;;25.13;24.13;;;21.80;51.10;;;;;;5031711;28;20477;-53
2023/06/03 06:39:48;;;;;;;25.13;24.13;;;21.80;51.20;;;;;;5030714;28;20496;-55
2023/06/03 06:42:18;;;;;;;24.47;23.47;;;21.80;51.40;;;;;;5016142;28;20860;-54
2023/06/03 06:44:47;;;;;;;25.37;24.37;;;21.90;51.40;;;;;;5031387;28;20533;-51
2023/06/03 06:47:22;;;;;;;25.90;24.70;;;21.90;51.40;;;;;;5031504;28;20441;-58
2023/06/03 06:49:49;;;;;;;24.70;23.50;;;21.90;51.30;;;;;;5031387;28;20519;-58
2023/06/03 06:52:19;;;;;;;24.53;23.53;;;22.00;51.30;;;;;;5030741;28;20454;-52
2023/06/03 06:54:46;;;;;;;25.70;24.70;;;22.00;51.30;;;;;;5030981;28;20940;-52
2023/06/03 06:57:20;;;;;;;24.60;23.60;;;22.00;51.20;;;;;;5031168;28;20532;-52
2023/06/03 06:59:47;;;;;;;25.40;24.40;;;22.00;51.20;;;;;;5031291;28;20461;-52
2023/06/03 07:02:15;;;;;;;24.90;23.90;;;22.00;51.20;;;;;;5030913;28;20472;-55
2023/06/03 07:04:42;;;;;;;25.30;24.20;;;22.00;51.10;;;;;;5031379;28;20598;-53
2023/06/03 07:07:09;;;;;;;27.00;25.50;;;22.00;51.20;;;;;;5031257;28;20445;-54
2023/06/03 07:09:36;;;;;;;26.10;24.83;;;22.00;51.20;;;;;;5031216;28;20572;-55
2023/06/03 07:12:03;;;;;;;26.00;24.40;;;22.00;51.30;;;;;;5030773;28;20530;-54
2023/06/03 07:14:30;;;;;;;29.23;27.33;;;22.00;51.90;;;;;;5031058;28;20477;-54
2023/06/03 07:16:57;;;;;;;26.73;25.23;;;22.00;52.40;;;;;;5031210;28;20533;-53
2023/06/03 07:19:28;;;;;;;26.80;25.10;;;22.00;53.00;;;;;;5031181;28;20476;-50
2023/06/03 07:21:55;;;;;;;27.90;25.90;;;22.20;54.10;;;;;;5030799;28;20445;-56
2023/06/03 07:24:21;;;;;;;30.60;27.80;;;22.20;54.40;;;;;;5031132;28;20488;-51
2023/06/03 07:26:48;;;;;;;31.00;28.47;;;22.20;56.90;;;;;;5031032;28;20536;-51
2023/06/03 07:29:16;;;;;;;31.43;28.90;;;22.30;59.30;;;;;;5031006;28;20568;-56
2023/06/03 07:31:43;;;;;;;28.63;26.73;;;22.40;61.40;;;;;;5030648;28;20508;-53
2023/06/03 07:34:10;;;;;;;29.83;27.73;;;22.40;62.50;;;;;;5030788;28;20545;-56
2023/06/03 07:36:39;;;;;;;29.53;27.70;;;22.50;62.70;;;;;;5030909;28;20476;-53
2023/06/03 07:39:08;;;;;;;27.87;25.70;;;22.50;62.20;;;;;;5030999;28;20473;-53
2023/06/03 07:41:40;;;;;;;26.10;24.57;;;22.50;61.30;;;;;;5030315;28;20477;-51
2023/06/03 07:44:08;;;;;;;26.57;24.93;;;22.50;60.60;;;;;;5030927;28;20449;-52
2023/06/03 07:46:40;;;;;;;28.13;26.53;;;22.50;59.90;;;;;;5030905;28;20488;-55
2023/06/03 07:49:10;;;;;;;27.23;25.13;;;22.50;59.60;;;;;;5030815;28;20573;-56
2023/06/03 07:51:42;;;;;;;24.83;23.53;;;22.50;59.20;;;;;;5034033;28;20472;-54
2023/06/03 07:54:10;;;;;;;25.37;23.67;;;22.60;59.10;;;;;;5034514;28;20451;-55
2023/06/03 07:56:37;;;;;;;24.53;23.40;;;22.60;58.80;;;;;;5034500;28;20456;-58
2023/06/03 07:59:06;;;;;;;24.37;23.17;;;22.60;58.70;;;;;;5034486;28;20536;-56
2023/06/03 08:01:35;;;;;;;24.77;23.47;;;22.60;58.20;;;;;;5034052;28;20522;-54
2023/06/03 08:04:05;;;;;;;25.07;23.80;;;22.50;57.70;;;;;;5034418;28;20440;-54
2023/06/03 08:06:36;;;;;;;26.57;24.77;;;22.60;57.40;;;;;;5034580;28;20445;-57
2023/06/03 08:09:05;;;;;;;25.60;24.20;;;22.50;57.00;;;;;;5034245;28;20441;-55
2023/06/03 08:11:36;;;;;;;24.93;23.60;;;22.50;56.70;;;;;;5034027;28;20523;-58
2023/06/03 08:14:03;;;;;;;24.00;22.60;;;22.50;56.40;;;;;;5033663;28;20445;-53
2023/06/03 08:16:34;;;;;;;23.60;22.30;;;22.50;56.10;;;;;;5034171;28;20951;-58
2023/06/03 08:19:01;;;;;;;24.47;23.07;;;22.50;55.80;;;;;;5034162;28;20819;-56
2023/06/03 08:21:30;;;;;;;23.63;22.47;;;22.50;55.50;;;;;;5033901;28;20516;-53
2023/06/03 08:23:57;;;;;;;25.10;24.00;;;22.60;55.50;;;;;;5034079;28;20936;-55
2023/06/03 08:26:26;;;;;;;24.60;23.50;;;22.60;55.20;;;;;;5033772;28;20492;-56
2023/06/03 08:28:53;;;;;;;24.57;23.37;;;22.60;55.10;;;;;;5033977;28;20459;-58
2023/06/03 08:31:20;;;;;;;25.40;24.20;;;22.60;55.10;;;;;;5033000;28;20915;-56
2023/06/03 08:33:47;;;;;;;22.97;21.77;;;22.60;55.00;;;;;;5033423;28;20532;-57
2023/06/03 08:36:14;;;;;;;24.87;23.50;;;22.60;55.20;;;;;;5033817;28;20532;-56
2023/06/03 08:38:41;;;;;;;23.60;22.03;;;22.60;56.10;;;;;;5033846;28;20804;-55
2023/06/03 08:41:08;;;;;;;23.77;22.67;;;22.70;56.00;;;;;;5034015;28;20511;-55
2023/06/03 08:43:44;;;;;;;24.10;22.63;;;22.80;55.70;;;;;;5033473;28;20480;-55
2023/06/03 08:46:22;;;;;;;24.23;22.97;;;22.80;55.50;;;;;;5033690;28;20811;-57
2023/06/03 08:48:55;;;;;;;23.40;22.03;;;22.80;55.30;;;;;;5033729;28;20464;-56
2023/06/03 08:51:24;;;;;;;26.23;24.60;;;22.70;55.20;;;;;;5033225;28;20512;-58
2023/06/03 08:53:52;;;;;;;23.70;22.53;;;22.70;55.00;;;;;;5033552;28;20477;-54
2023/06/03 08:56:20;;;;;;;24.33;23.23;;;22.70;54.90;;;;;;5033478;28;20528;-57
2023/06/03 08:58:52;;;;;;;25.10;23.90;;;22.70;54.60;;;;;;5033595;28;20473;-56
2023/06/03 09:01:22;;;;;;;26.10;24.80;;;22.80;54.50;;;;;;5032054;28;20898;-54
2023/06/03 09:03:53;;;;;;;26.17;24.87;;;22.70;54.40;;;;;;5033261;28;20477;-54
2023/06/03 09:06:20;;;;;;;26.30;25.10;;;22.80;54.90;;;;;;5033407;28;20859;-55
2023/06/03 09:08:50;;;;;;;30.23;28.63;;;22.80;54.90;;;;;;5033363;28;20964;-52
2023/06/03 09:11:18;;;;;;;29.73;27.70;;;22.90;55.20;;;;;;5032371;28;21032;-52
2023/06/03 09:13:46;;;;;;;28.17;26.73;;;22.90;55.00;;;;;;5032942;28;20472;-54
2023/06/03 09:16:18;;;;;;;27.00;25.73;;;22.90;54.90;;;;;;5033040;28;20442;-56
2023/06/03 09:18:47;;;;;;;27.00;25.60;;;22.90;54.80;;;;;;5033001;28;20449;-53
2023/06/03 09:21:15;;;;;;;28.87;27.57;;;22.90;54.40;;;;;;5032442;28;20461;-55
2023/06/03 09:23:42;;;;;;;27.03;25.53;;;22.90;54.10;;;;;;5033064;28;20587;-57
2023/06/03 09:26:09;;;;;;;26.33;25.00;;;22.90;54.10;;;;;;5032865;28;20445;-55
2023/06/03 09:28:36;;;;;;;25.30;24.10;;;23.00;53.80;;;;;;5032647;28;20452;-50
2023/06/03 09:31:05;;;;;;;26.20;24.80;;;23.00;53.50;;;;;;5032583;28;20496;-54
2023/06/03 09:33:33;;;;;;;25.07;23.60;;;22.90;53.70;;;;;;5032593;28;20472;-57
2023/06/03 09:36:07;;;;;;;24.30;23.00;;;23.00;53.70;;;;;;5032741;28;20484;-51
2023/06/03 09:38:48;;;;;;;25.03;23.83;;;23.00;53.90;;;;;;5032567;28;20893;-54
2023/06/03 09:41:16;;;;;;;24.90;23.70;;;23.00;54.30;;;;;;5032299;28;20496;-60
2023/06/03 09:43:56;;;;;;;23.83;22.83;;;23.00;53.70;;;;;;5031129;28;20445;-57
2023/06/03 09:46:24;;;;;;;23.50;22.33;;;23.10;54.20;;;;;;5032374;28;20515;-53
2023/06/03 09:48:52;;;;;;;24.67;23.37;;;23.10;53.70;;;;;;5032431;28;20529;-57
2023/06/03 09:51:19;;;;;;;23.70;22.70;;;23.20;53.20;;;;;;5032102;28;21075;-57
2023/06/03 09:53:46;;;;;;;24.40;23.40;;;23.10;52.70;;;;;;5032193;28;20491;-52
2023/06/03 09:56:23;;;;;;;24.23;22.70;;;23.10;52.70;;;;;;5031897;28;20485;-55
2023/06/03 09:58:52;;;;;;;23.67;22.70;;;23.10;52.70;;;;;;5032206;28;20459;-59
2023/06/03 10:01:31;;;;;;;24.63;23.50;;;23.10;52.10;;;;;;5032059;28;20465;-55
2023/06/03 10:04:00;;;;;;;23.53;22.40;;;23.10;51.70;;;;;;5032094;28;20444;-56
2023/06/03 10:06:27;;;;;;;24.67;23.67;;;23.20;51.50;;;;;;5031916;28;20484;-53
2023/06/03 10:08:54;;;;;;;23.47;22.47;;;23.20;51.20;;;;;;5032220;28;20445;-54
2023/06/03 10:11:23;;;;;;;23.60;22.70;;;23.20;50.90;;;;;;5031756;28;20528;-56
2023/06/03 10:14:04;;;;;;;24.27;23.17;;;23.20;50.80;;;;;;5031814;28;20455;-59
2023/06/03 10:16:31;;;;;;;22.10;21.20;;;23.20;50.60;;;;;;5032052;28;20445;-58
2023/06/03 10:18:59;;;;;;;23.33;22.13;;;23.20;50.30;;;;;;5031729;28;20477;-56
2023/06/03 10:21:29;;;;;;;23.83;22.40;;;23.20;50.10;;;;;;5031660;28;20512;-58
2023/06/03 10:23:58;;;;;;;22.80;21.90;;;23.20;50.50;;;;;;5031950;28;20452;-54
2023/06/03 10:26:26;;;;;;;23.43;22.53;;;23.20;49.70;;;;;;5031826;28;20822;-57
2023/06/03 10:28:53;;;;;;;23.83;22.87;;;23.20;49.70;;;;;;5031855;28;20480;-58
2023/06/03 10:31:22;;;;;;;23.20;22.40;;;23.20;49.90;;;;;;5031171;28;20523;-56
2023/06/03 10:33:50;;;;;;;23.70;22.70;;;23.20;50.00;;;;;;5031665;28;20440;-54
2023/06/03 10:36:20;;;;;;;22.80;21.90;;;23.10;49.70;;;;;;5031651;28;20969;-56
2023/06/03 10:38:49;;;;;;;22.43;21.47;;;23.10;49.80;;;;;;5031749;28;20445;-55
2023/06/03 10:41:16;;;;;;;23.93;22.77;;;23.00;49.80;;;;;;5031335;28;20473;-58
2023/06/03 10:43:44;;;;;;;23.63;22.73;;;23.00;49.80;;;;;;5031658;28;20444;-57
2023/06/03 10:46:12;;;;;;;23.40;22.40;;;22.90;49.50;;;;;;5031573;28;20449;-56
2023/06/03 10:48:42;;;;;;;23.83;22.83;;;22.90;49.00;;;;;;5031375;28;20485;-58
2023/06/03 10:51:24;;;;;;;23.53;22.63;;;22.80;48.50;;;;;;5031070;28;20516;-55
2023/06/03 10:54:03;;;;;;;24.10;23.10;;;22.70;48.00;;;;;;5031456;28;20924;-55
2023/06/03 10:56:36;;;;;;;23.03;21.90;;;22.60;47.60;;;;;;5031391;28;20498;-56
2023/06/03 10:59:04;;;;;;;24.20;23.20;;;22.60;47.50;;;;;;5031244;28;20456;-56
2023/06/03 11:01:56;;;;;;;23.60;22.70;;;22.50;47.10;;;;;;5031067;28;20999;-57
2023/06/03 11:04:23;;;;;;;23.50;22.60;;;22.50;46.90;;;;;;5031299;28;20445;-58
2023/06/03 11:06:52;;;;;;;23.80;22.80;;;22.50;46.70;;;;;;5031317;28;20487;-56
2023/06/03 11:09:31;;;;;;;21.90;21.00;;;22.50;46.50;;;;;;5031457;28;20927;-59
2023/06/03 11:12:13;;;;;;;22.30;21.40;;;22.40;46.50;;;;;;5031004;28;20917;-55
2023/06/03 11:14:56;;;;;;;23.57;22.57;;;22.40;47.00;;;;;;5031098;28;20457;-58
2023/06/03 11:17:25;;;;;;;23.30;22.10;;;22.30;46.00;;;;;;5031277;28;20444;-53
2023/06/03 11:19:54;;;;;;;22.77;21.67;;;22.30;46.10;;;;;;5031169;28;20469;-54
2023/06/03 11:22:45;;;;;;;23.17;22.27;;;22.30;46.30;;;;;;5030694;28;20457;-58
2023/06/03 11:25:28;;;;;;;22.43;21.50;;;22.30;46.40;;;;;;5032832;28;20483;-57
2023/06/03 11:28:34;;;;;;;22.97;21.97;;;22.30;46.40;;;;;;5035160;28;20612;-54
2023/06/03 11:31:06;;;;;;;22.43;21.63;;;22.30;46.40;;;;;;5034936;28;20567;-57
2023/06/03 11:33:33;;;;;;;22.53;21.63;;;22.30;46.20;;;;;;5034833;28;20447;-54
2023/06/03 11:36:57;;;;;;;23.13;22.13;;;22.30;46.20;;;;;;5034744;28;20556;-56
2023/06/03 11:39:25;;;;;;;21.97;21.07;;;22.30;46.20;;;;;;5035034;28;20503;-54
2023/06/03 11:42:03;;;;;;;23.40;22.37;;;22.30;46.10;;;;;;5034849;28;20433;-57
2023/06/03 11:44:30;;;;;;;23.10;22.17;;;22.30;46.20;;;;;;5034478;28;20481;-55
2023/06/03 11:46:57;;;;;;;21.90;21.00;;;22.30;46.10;;;;;;5034978;28;20528;-56
2023/06/03 11:49:25;;;;;;;23.13;22.10;;;22.20;45.90;;;;;;5034580;28;20484;-57
2023/06/03 11:51:57;;;;;;;23.03;22.13;;;22.30;46.20;;;;;;5034275;28;20995;-56
2023/06/03 11:54:25;;;;;;;23.07;22.10;;;22.30;45.90;;;;;;5034751;28;20792;-60
2023/06/03 11:56:54;;;;;;;24.30;23.13;;;22.30;45.90;;;;;;5034653;28;20891;-58
2023/06/03 11:59:26;;;;;;;24.40;23.30;;;22.30;45.90;;;;;;5034482;28;20459;-58
2023/06/03 12:01:57;;;;;;;24.07;22.47;;;22.30;46.20;;;;;;5034076;28;20468;-56
2023/06/03 12:04:24;;;;;;;24.23;23.17;;;22.30;46.30;;;;;;5034574;28;20499;-52
2023/06/03 12:06:51;;;;;;;22.53;21.60;;;22.30;46.20;;;;;;5034362;28;20447;-58
2023/06/03 12:09:19;;;;;;;22.90;21.90;;;22.40;46.30;;;;;;5034517;28;20444;-55
2023/06/03 12:11:48;;;;;;;22.50;21.40;;;22.30;46.00;;;;;;5033763;28;20527;-55
2023/06/03 12:14:28;;;;;;;23.43;22.43;;;22.30;45.90;;;;;;5033615;28;20992;-57
2023/06/03 12:16:57;;;;;;;22.53;21.73;;;22.30;45.80;;;;;;5033985;28;20448;-59
2023/06/03 12:19:24;;;;;;;22.80;21.80;;;22.30;45.90;;;;;;5034191;28;20532;-60
2023/06/03 12:21:58;;;;;;;22.63;21.83;;;22.30;45.80;;;;;;5033729;28;20447;-60
2023/06/03 12:24:31;;;;;;;23.87;22.97;;;22.40;46.00;;;;;;5033746;28;20444;-56
2023/06/03 12:27:15;;;;;;;23.10;22.20;;;22.40;46.00;;;;;;5033942;28;20539;-60
2023/06/03 12:29:43;;;;;;;24.20;23.00;;;22.40;45.90;;;;;;5033811;28;20482;-58
2023/06/03 12:32:10;;;;;;;23.30;22.20;;;22.40;45.70;;;;;;5033657;28;20492;-56
2023/06/03 12:34:38;;;;;;;23.20;22.00;;;22.40;45.80;;;;;;5033633;28;20448;-59
2023/06/03 12:37:06;;;;;;;22.87;21.87;;;22.40;45.80;;;;;;5032216;28;20481;-55
2023/06/03 12:39:45;;;;;;;22.87;21.87;;;22.50;45.80;;;;;;5033548;28;20476;-56
2023/06/03 12:42:13;;;;;;;23.50;22.23;;;22.50;45.80;;;;;;5033696;28;20456;-54